Time;durP1;ratioP1;P1;durP2;ratioP2;P2;SDS_P1;SDS_P2;PMS_P1;PMS_P2;Temp;Humidity;BMP_temperature;BMP_pressure;BME280_temperature;BME280_humidity;BME280_pressure;Samples;Min_cycle;Max_cycle;Signal;HPM_P1;HPM_P2
2021/03/26 00:01:05;;;;;;;;;;;16.80;59.50;;;;;;5031328;28;19919;-75
2021/03/26 00:03:35;;;;;;;;;;;16.80;59.60;;;;;;5030717;28;19963;-75
2021/03/26 00:06:06;;;;;;;;;;;16.80;59.50;;;;;;5033531;28;19917;-74
2021/03/26 00:08:31;;;;;;;;;;;16.80;59.50;;;;;;5016602;28;19921;-74
2021/03/26 00:10:57;;;;;;;;;;;16.80;59.60;;;;;;5040661;28;20338;-76
2021/03/26 00:13:23;;;;;;;;;;;16.80;59.60;;;;;;5039953;28;19924;-74
2021/03/26 00:15:49;;;;;;;;;;;16.80;59.60;;;;;;5044736;28;19920;-74
2021/03/26 00:18:14;;;;;;;;;;;16.80;59.50;;;;;;5049035;28;20029;-74
2021/03/26 00:20:40;;;;;;;;;;;16.80;59.60;;;;;;5047161;28;19992;-74
2021/03/26 00:23:06;;;;;;;;;;;16.80;59.60;;;;;;5044688;28;19921;-73
2021/03/26 00:25:32;;;;;;;;;;;16.70;59.60;;;;;;5035947;28;19919;-76
2021/03/26 00:27:58;;;;;;;;;;;16.70;59.60;;;;;;5046772;28;20329;-73
2021/03/26 00:30:24;;;;;;;;;;;16.80;59.60;;;;;;5044114;28;19939;-75
2021/03/26 00:32:49;;;;;;;;;;;16.70;59.60;;;;;;5024331;28;20286;-75
2021/03/26 00:35:16;;;;;;;;;;;16.80;59.60;;;;;;5024714;28;19932;-75
2021/03/26 00:37:42;;;;;;;;;;;16.80;59.60;;;;;;5039559;28;19927;-75
2021/03/26 00:40:09;;;;;;;;;;;16.70;59.60;;;;;;5039286;28;19925;-74
2021/03/26 00:42:34;;;;;;;;;;;16.80;59.60;;;;;;5041847;28;19999;-74
2021/03/26 00:45:00;;;;;;;;;;;16.80;59.60;;;;;;5032919;28;20016;-75
2021/03/26 00:47:26;;;;;;;;;;;16.80;59.60;;;;;;5051151;28;19924;-75
2021/03/26 00:49:51;;;;;;;;;;;16.70;59.70;;;;;;5052518;28;19923;-74
2021/03/26 00:52:17;;;;;;;;;;;16.80;59.60;;;;;;5036512;28;20385;-75
2021/03/26 00:54:42;;;;;;;;;;;16.80;59.70;;;;;;5053211;28;19913;-74
2021/03/26 00:57:08;;;;;;;;;;;16.70;59.70;;;;;;5052003;28;19921;-75
2021/03/26 00:59:33;;;;;;;;;;;16.70;59.70;;;;;;5048981;28;19917;-75
2021/03/26 01:01:59;;;;;;;;;;;16.70;59.70;;;;;;5054293;28;19966;-75
2021/03/26 01:04:24;;;;;;;;;;;16.70;59.70;;;;;;5069433;28;19912;-75
2021/03/26 01:06:50;;;;;;;;;;;16.80;59.70;;;;;;5035601;28;19967;-74
2021/03/26 01:09:15;;;;;;;;;;;16.70;59.70;;;;;;5046549;28;19920;-74
2021/03/26 01:11:41;;;;;;;;;;;16.80;59.70;;;;;;5029213;28;19975;-76
2021/03/26 01:14:10;;;;;;;;;;;16.80;59.70;;;;;;5048149;28;19913;-75
2021/03/26 01:16:35;;;;;;;;;;;16.80;59.80;;;;;;5036418;28;19956;-75
2021/03/26 01:19:02;;;;;;;;;;;16.70;59.80;;;;;;5049484;28;20359;-75
2021/03/26 01:21:29;;;;;;;;;;;16.70;59.80;;;;;;5050036;28;19912;-75
2021/03/26 01:23:55;;;;;;;;;;;16.70;59.80;;;;;;5027751;28;19921;-74
2021/03/26 01:26:21;;;;;;;;;;;16.70;59.80;;;;;;5047657;28;19913;-74
2021/03/26 01:28:47;;;;;;;;;;;16.70;59.80;;;;;;5048740;28;20311;-76
2021/03/26 01:31:12;;;;;;;;;;;16.80;59.80;;;;;;5050301;28;20012;-74
2021/03/26 01:33:38;;;;;;;;;;;16.70;59.80;;;;;;5044477;28;20007;-75
2021/03/26 01:36:04;;;;;;;;;;;16.70;59.80;;;;;;5052501;28;19932;-74
2021/03/26 01:38:29;;;;;;;;;;;16.70;59.80;;;;;;5030400;28;19913;-74
2021/03/26 01:40:57;;;;;;;;;;;16.70;59.80;;;;;;5049398;28;19984;-75
2021/03/26 01:43:26;;;;;;;;;;;16.70;59.80;;;;;;5037084;28;19913;-75
2021/03/26 01:45:52;;;;;;;;;;;16.70;59.80;;;;;;5025456;28;19913;-75
2021/03/26 01:48:25;;;;;;;;;;;16.70;59.80;;;;;;5060478;28;20285;-77
2021/03/26 01:50:51;;;;;;;;;;;16.70;59.80;;;;;;5035131;28;19924;-75
2021/03/26 01:53:17;;;;;;;;;;;16.70;59.80;;;;;;5047008;28;19917;-75
2021/03/26 01:55:45;;;;;;;;;;;16.70;59.80;;;;;;5045906;28;19920;-75
2021/03/26 01:58:13;;;;;;;;;;;16.70;59.80;;;;;;5032119;28;20117;-74
2021/03/26 02:00:41;;;;;;;;;;;16.70;59.80;;;;;;5032006;28;20354;-75
2021/03/26 02:03:17;;;;;;;;;;;16.70;59.80;;;;;;5065821;28;20392;-74
2021/03/26 02:05:48;;;;;;;;;;;16.70;59.80;;;;;;5033872;28;20368;-75
2021/03/26 02:08:14;;;;;;;;;;;16.70;59.90;;;;;;5038335;28;20020;-74
2021/03/26 02:10:41;;;;;;;;;;;16.70;59.90;;;;;;5059255;28;19916;-74
2021/03/26 02:13:09;;;;;;;;;;;16.70;59.90;;;;;;5030822;28;19951;-75
2021/03/26 02:15:43;;;;;;;;;;;16.70;59.90;;;;;;5051824;28;19912;-75
2021/03/26 02:18:08;;;;;;;;;;;16.70;59.90;;;;;;5066800;28;20362;-75
2021/03/26 02:20:34;;;;;;;;;;;16.70;59.90;;;;;;5053099;28;19920;-74
2021/03/26 02:23:07;;;;;;;;;;;16.70;59.90;;;;;;5036828;28;20389;-74
2021/03/26 02:25:32;;;;;;;;;;;16.70;59.90;;;;;;5023843;28;20000;-77
2021/03/26 02:27:58;;;;;;;;;;;16.70;59.90;;;;;;5065457;28;20485;-75
2021/03/26 02:30:26;;;;;;;;;;;16.70;59.90;;;;;;5047507;28;19923;-75
2021/03/26 02:32:52;;;;;;;;;;;16.70;59.90;;;;;;5035034;28;20363;-75
2021/03/26 02:35:29;;;;;;;;;;;16.70;59.90;;;;;;5052594;28;20384;-75
2021/03/26 02:37:54;;;;;;;;;;;16.70;59.90;;;;;;5037010;28;20057;-75
2021/03/26 02:40:29;;;;;;;;;;;16.70;59.90;;;;;;5046926;28;20015;-75
2021/03/26 02:43:14;;;;;;;;;;;16.60;59.90;;;;;;5031025;28;19928;-75
2021/03/26 02:45:43;;;;;;;;;;;16.70;60.00;;;;;;5043278;28;19935;-75
2021/03/26 02:48:13;;;;;;;;;;;16.70;60.00;;;;;;5048822;28;19913;-74
2021/03/26 02:50:41;;;;;;;;;;;16.70;60.00;;;;;;5035601;28;19996;-75
2021/03/26 02:53:15;;;;;;;;;;;16.60;60.00;;;;;;5064092;28;20015;-75
2021/03/26 02:55:46;;;;;;;;;;;16.60;60.00;;;;;;5035137;28;19956;-74
2021/03/26 02:58:23;;;;;;;;;;;16.60;60.00;;;;;;5023430;28;19913;-76
2021/03/26 03:00:55;;;;;;;;;;;16.70;60.00;;;;;;5021885;28;20369;-76
2021/03/26 03:03:22;;;;;;;;;;;16.60;60.00;;;;;;5044264;28;19916;-75
2021/03/26 03:05:52;;;;;;;;;;;16.60;60.00;;;;;;5041073;28;20274;-76
2021/03/26 03:08:23;;;;;;;;;;;16.60;60.00;;;;;;5043105;28;19955;-76
2021/03/26 03:10:51;;;;;;;;;;;16.60;60.00;;;;;;5024543;28;19917;-76
2021/03/26 03:13:40;;;;;;;;;;;16.60;60.00;;;;;;5028855;28;19913;-75
2021/03/26 03:16:29;;;;;;;;;;;16.60;60.00;;;;;;5042402;28;19940;-74
2021/03/26 03:19:01;;;;;;;;;;;16.60;60.00;;;;;;5035244;28;19956;-75
2021/03/26 03:21:34;;;;;;;;;;;16.60;60.00;;;;;;5042369;28;19955;-75
2021/03/26 03:24:09;;;;;;;;;;;16.60;60.00;;;;;;5032259;28;20004;-75
2021/03/26 03:26:47;;;;;;;;;;;16.60;60.10;;;;;;5044743;28;20016;-75
2021/03/26 03:29:12;;;;;;;;;;;16.70;60.00;;;;;;5047333;28;19913;-74
2021/03/26 03:31:44;;;;;;;;;;;16.70;60.00;;;;;;5049642;28;19931;-74
2021/03/26 03:34:18;;;;;;;;;;;16.60;60.00;;;;;;5063511;28;20432;-74
2021/03/26 03:36:49;;;;;;;;;;;16.60;60.10;;;;;;5053991;28;19917;-74
2021/03/26 03:39:20;;;;;;;;;;;16.60;60.10;;;;;;5028538;28;19920;-74
2021/03/26 03:41:48;;;;;;;;;;;16.60;60.10;;;;;;5048842;28;19929;-74
2021/03/26 03:44:19;;;;;;;;;;;16.60;60.10;;;;;;5026146;28;19913;-74
2021/03/26 03:46:49;;;;;;;;;;;16.60;60.10;;;;;;5042840;28;19927;-74
2021/03/26 03:49:25;;;;;;;;;;;16.60;60.10;;;;;;5034004;28;19917;-74
2021/03/26 03:52:10;;;;;;;;;;;16.60;60.10;;;;;;5052288;28;19924;-75
2021/03/26 03:54:54;;;;;;;;;;;16.60;60.10;;;;;;5059890;28;19970;-75
2021/03/26 03:57:23;;;;;;;;;;;16.60;60.10;;;;;;5027162;28;19913;-74
2021/03/26 04:00:07;;;;;;;;;;;16.60;60.10;;;;;;5049864;28;19952;-75
2021/03/26 04:02:42;;;;;;;;;;;16.60;60.10;;;;;;5067367;28;19920;-75
2021/03/26 04:05:08;;;;;;;;;;;16.60;60.10;;;;;;5042239;28;19939;-74
2021/03/26 04:07:39;;;;;;;;;;;16.60;60.10;;;;;;5034725;28;20469;-75
2021/03/26 04:10:07;;;;;;;;;;;16.60;60.10;;;;;;5049002;28;20017;-74
2021/03/26 04:12:37;;;;;;;;;;;16.60;60.10;;;;;;5040601;28;19923;-76
2021/03/26 04:15:11;;;;;;;;;;;16.60;60.10;;;;;;5036448;28;19913;-75
2021/03/26 04:17:40;;;;;;;;;;;16.60;60.20;;;;;;5043374;28;19920;-75
2021/03/26 04:20:07;;;;;;;;;;;16.50;60.20;;;;;;5036469;28;20256;-74
2021/03/26 04:22:38;;;;;;;;;;;16.60;60.20;;;;;;5028322;28;19913;-75
2021/03/26 04:25:08;;;;;;;;;;;16.60;60.10;;;;;;5061541;28;19913;-75
2021/03/26 04:27:37;;;;;;;;;;;16.60;60.20;;;;;;5022571;28;19913;-75
2021/03/26 04:30:13;;;;;;;;;;;16.60;60.20;;;;;;5045832;28;19967;-75
2021/03/26 04:32:39;;;;;;;;;;;16.60;60.20;;;;;;5017364;28;19923;-74
2021/03/26 04:35:06;;;;;;;;;;;16.60;60.20;;;;;;5055794;28;19913;-74
2021/03/26 04:37:36;;;;;;;;;;;16.60;60.20;;;;;;5044134;28;19920;-75
2021/03/26 04:40:12;;;;;;;;;;;16.60;60.20;;;;;;5045173;28;19943;-75
2021/03/26 04:42:51;;;;;;;;;;;16.60;60.20;;;;;;5037817;28;20277;-75
2021/03/26 04:45:35;;;;;;;;;;;16.60;60.20;;;;;;5030539;28;19920;-76
2021/03/26 04:48:07;;;;;;;;;;;16.60;60.20;;;;;;5043169;28;19940;-75
2021/03/26 04:50:38;;;;;;;;;;;16.60;60.20;;;;;;5051820;28;19925;-76
2021/03/26 04:53:24;;;;;;;;;;;16.60;60.20;;;;;;5031461;28;20410;-76
2021/03/26 04:55:53;;;;;;;;;;;16.60;60.20;;;;;;5045517;28;20432;-75
2021/03/26 04:58:20;;;;;;;;;;;16.60;60.20;;;;;;5042827;28;19956;-75
2021/03/26 05:00:47;;;;;;;;;;;16.60;60.20;;;;;;5047090;28;19917;-75
2021/03/26 05:03:19;;;;;;;;;;;16.50;60.20;;;;;;5044007;28;20011;-75
2021/03/26 05:05:50;;;;;;;;;;;16.60;60.30;;;;;;5018501;28;19913;-75
2021/03/26 05:08:16;;;;;;;;;;;16.60;60.20;;;;;;5043948;28;19921;-75
2021/03/26 05:10:41;;;;;;;;;;;16.60;60.30;;;;;;5029853;28;20405;-77
2021/03/26 05:13:11;;;;;;;;;;;16.60;60.20;;;;;;5044639;28;19956;-75
2021/03/26 05:15:55;;;;;;;;;;;16.60;60.20;;;;;;5032250;28;20003;-75
2021/03/26 05:18:32;;;;;;;;;;;16.60;60.20;;;;;;5047310;28;19913;-75
2021/03/26 05:20:57;;;;;;;;;;;16.50;60.20;;;;;;5060683;28;20006;-75
2021/03/26 05:23:26;;;;;;;;;;;16.60;60.20;;;;;;5043250;28;19960;-75
2021/03/26 05:25:55;;;;;;;;;;;16.60;60.20;;;;;;5040480;28;19914;-75
2021/03/26 05:28:23;;;;;;;;;;;16.60;60.20;;;;;;5047675;28;19912;-76
2021/03/26 05:30:48;;;;;;;;;;;16.60;60.20;;;;;;5036224;28;19925;-76
2021/03/26 05:33:23;;;;;;;;;;;16.60;60.20;;;;;;5061860;28;19920;-76
2021/03/26 05:35:59;;;;;;;;;;;16.60;60.20;;;;;;5052332;28;19917;-76
2021/03/26 05:38:43;;;;;;;;;;;16.60;60.20;;;;;;5051241;28;20390;-73
2021/03/26 05:41:17;;;;;;;;;;;16.60;60.10;;;;;;5047772;28;19932;-73
2021/03/26 05:43:45;;;;;;;;;;;16.60;60.10;;;;;;5049518;28;19913;-73
2021/03/26 05:46:14;;;;;;;;;;;16.60;60.10;;;;;;5050061;28;19979;-73
2021/03/26 05:48:53;;;;;;;;;;;16.60;60.10;;;;;;5032011;28;20019;-73
2021/03/26 05:51:34;;;;;;;;;;;16.70;60.10;;;;;;5026403;28;20303;-74
2021/03/26 05:54:17;;;;;;;;;;;16.60;60.10;;;;;;5049531;28;19913;-73
2021/03/26 05:56:50;;;;;;;;;;;16.60;60.10;;;;;;5049024;28;19913;-74
2021/03/26 05:59:22;;;;;;;;;;;16.60;60.10;;;;;;5034215;28;19917;-73
2021/03/26 06:01:59;;;;;;;;;;;16.60;60.10;;;;;;5051319;28;20370;-74
2021/03/26 06:04:42;;;;;;;;;;;16.60;60.00;;;;;;5050611;28;19938;-73
2021/03/26 06:07:12;;;;;;;;;;;16.60;60.00;;;;;;5046006;28;19917;-75
2021/03/26 06:09:56;;;;;;;;;;;16.70;60.00;;;;;;5061595;28;20008;-74
2021/03/26 06:12:40;;;;;;;;;;;16.70;60.00;;;;;;5043704;28;19920;-76
2021/03/26 06:15:30;;;;;;;;;;;16.70;60.00;;;;;;5045985;28;19952;-75
2021/03/26 06:18:14;;;;;;;;;;;16.70;60.00;;;;;;5046327;28;19913;-75
2021/03/26 06:20:57;;;;;;;;;;;16.70;60.00;;;;;;5042268;28;19917;-74
2021/03/26 06:23:41;;;;;;;;;;;16.70;60.00;;;;;;5038208;28;19912;-74
2021/03/26 06:26:33;;;;;;;;;;;16.70;60.00;;;;;;5053100;28;19913;-75
2021/03/26 06:29:02;;;;;;;;;;;16.70;60.00;;;;;;5055968;28;19920;-73
2021/03/26 06:31:30;;;;;;;;;;;16.70;59.90;;;;;;5045971;28;19917;-74
2021/03/26 06:34:14;;;;;;;;;;;16.70;59.90;;;;;;5054037;28;19982;-74
2021/03/26 06:36:42;;;;;;;;;;;16.70;59.90;;;;;;5045893;28;19913;-74
2021/03/26 06:39:16;;;;;;;;;;;16.70;59.90;;;;;;5045052;28;20371;-74
2021/03/26 06:42:20;;;;;;;;;;;16.70;59.90;;;;;;5042004;28;20406;-75
2021/03/26 06:44:50;;;;;;;;;;;16.70;59.90;;;;;;4984200;28;19924;-74
2021/03/26 06:47:21;;;;;;;;;;;16.70;59.90;;;;;;4994805;28;19921;-74
2021/03/26 06:50:09;;;;;;;;;;;16.80;59.90;;;;;;5024066;28;19925;-75
2021/03/26 06:52:50;;;;;;;;;;;16.80;59.80;;;;;;5015025;28;20365;-75
2021/03/26 06:55:23;;;;;;;;;;;16.80;59.80;;;;;;5042934;28;20301;-75
2021/03/26 06:58:08;;;;;;;;;;;16.80;59.80;;;;;;5053124;28;20020;-75
2021/03/26 07:00:40;;;;;;;;;;;16.80;59.80;;;;;;5006395;28;20418;-74
2021/03/26 07:03:28;;;;;;;;;;;16.80;59.80;;;;;;5049211;28;20358;-73
2021/03/26 07:06:26;;;;;;;;;;;16.80;59.80;;;;;;5031141;28;20377;-75
2021/03/26 07:08:58;;;;;;;;;;;16.80;59.70;;;;;;4984695;28;19939;-76
2021/03/26 07:11:45;;;;;;;;;;;16.80;59.70;;;;;;5059478;28;21233;-75
2021/03/26 07:14:29;;;;;;;;;;;16.80;59.70;;;;;;5044657;28;19912;-72
2021/03/26 07:17:01;;;;;;;;;;;16.80;59.70;;;;;;5056743;28;19913;-73
2021/03/26 07:19:26;;;;;;;;;;;16.80;59.70;;;;;;5055098;28;19984;-73
2021/03/26 07:22:07;;;;;;;;;;;16.80;59.60;;;;;;5030691;28;20004;-74
2021/03/26 07:24:52;;;;;;;;;;;16.80;59.60;;;;;;5057249;28;19917;-75
2021/03/26 07:27:34;;;;;;;;;;;16.80;59.60;;;;;;5055260;28;19912;-75
2021/03/26 07:30:15;;;;;;;;;;;16.80;59.60;;;;;;5060412;28;19963;-74
2021/03/26 07:32:54;;;;;;;;;;;16.80;59.60;;;;;;5051447;28;20232;-74
2021/03/26 07:35:38;;;;;;;;;;;16.80;59.60;;;;;;5052293;28;20377;-74
2021/03/26 07:38:28;;;;;;;;;;;16.80;59.50;;;;;;5046583;28;19920;-74
2021/03/26 07:41:00;;;;;;;;;;;16.80;59.60;;;;;;5040488;28;20291;-75
2021/03/26 07:43:45;;;;;;;;;;;16.80;59.50;;;;;;5024902;28;19931;-74
2021/03/26 07:46:17;;;;;;;;;;;16.80;59.50;;;;;;5037031;28;19913;-74
2021/03/26 07:48:49;;;;;;;;;;;16.80;59.50;;;;;;5049910;28;19921;-75
2021/03/26 07:51:26;;;;;;;;;;;16.80;59.50;;;;;;5042765;28;19971;-74
2021/03/26 07:53:58;;;;;;;;;;;16.80;59.40;;;;;;5044207;28;19966;-74
2021/03/26 07:56:28;;;;;;;;;;;16.80;59.40;;;;;;5056798;28;19975;-74
2021/03/26 07:58:59;;;;;;;;;;;16.80;59.40;;;;;;5045688;28;19958;-74
2021/03/26 08:01:43;;;;;;;;;;;16.80;59.50;;;;;;5037719;28;20465;-74
2021/03/26 08:04:14;;;;;;;;;;;16.80;59.40;;;;;;5045678;28;20306;-74
2021/03/26 08:06:49;;;;;;;;;;;16.80;59.40;;;;;;5050367;28;20496;-74
2021/03/26 08:09:29;;;;;;;;;;;16.80;59.40;;;;;;5035961;28;19924;-75
2021/03/26 08:12:08;;;;;;;;;;;16.90;59.30;;;;;;5041508;28;19917;-75
2021/03/26 08:15:12;;;;;;;;;;;16.90;59.30;;;;;;5043913;28;19982;-75
2021/03/26 08:18:01;;;;;;;;;;;16.90;59.30;;;;;;4972317;28;19914;-74
2021/03/26 08:20:31;;;;;;;;;;;16.90;59.30;;;;;;4957117;28;19918;-74
2021/03/26 08:23:00;;;;;;;;;;;16.90;59.20;;;;;;4960194;28;19991;-74
2021/03/26 08:25:31;;;;;;;;;;;16.90;59.20;;;;;;4971387;28;20344;-74
2021/03/26 08:28:15;;;;;;;;;;;16.90;59.20;;;;;;4968705;28;20450;-74
2021/03/26 08:30:40;;;;;;;;;;;16.90;59.20;;;;;;4990135;28;20008;-74
2021/03/26 08:33:21;;;;;;;;;;;16.90;59.20;;;;;;4992054;28;20079;-75
2021/03/26 08:36:04;;;;;;;;;;;16.90;59.20;;;;;;4987598;28;20383;-74
2021/03/26 08:38:35;;;;;;;;;;;16.90;59.20;;;;;;4981192;28;19976;-74
2021/03/26 08:41:20;;;;;;;;;;;17.00;59.10;;;;;;4983321;28;19922;-75
2021/03/26 08:43:50;;;;;;;;;;;17.00;59.10;;;;;;4965343;28;19934;-74
2021/03/26 08:46:17;;;;;;;;;;;17.00;59.00;;;;;;4965670;28;19984;-74
2021/03/26 08:48:58;;;;;;;;;;;17.00;59.00;;;;;;5005841;28;19966;-74
2021/03/26 08:51:36;;;;;;;;;;;17.00;59.00;;;;;;5055864;28;19960;-74
2021/03/26 08:54:14;;;;;;;;;;;17.00;59.00;;;;;;5041943;28;19927;-76
2021/03/26 08:56:47;;;;;;;;;;;17.00;59.00;;;;;;5027245;28;19913;-74
2021/03/26 08:59:12;;;;;;;;;;;17.00;59.00;;;;;;5026933;28;19932;-74
2021/03/26 09:01:56;;;;;;;;;;;17.00;59.00;;;;;;5041964;28;20262;-73
2021/03/26 09:04:31;;;;;;;;;;;17.00;59.00;;;;;;5038493;28;20362;-75
2021/03/26 09:06:57;;;;;;;;;;;17.00;58.90;;;;;;5046832;28;19919;-74
2021/03/26 09:09:25;;;;;;;;;;;17.00;58.90;;;;;;5047515;28;19921;-75
2021/03/26 09:12:07;;;;;;;;;;;17.00;58.90;;;;;;5066310;28;19916;-74
2021/03/26 09:14:57;;;;;;;;;;;17.00;58.80;;;;;;5052150;28;19912;-75
2021/03/26 09:17:25;;;;;;;;;;;17.00;58.90;;;;;;5035466;28;20117;-75
2021/03/26 09:20:06;;;;;;;;;;;17.10;58.90;;;;;;5033338;28;19967;-75
2021/03/26 09:22:50;;;;;;;;;;;17.00;58.80;;;;;;5045561;28;19920;-76
2021/03/26 09:25:23;;;;;;;;;;;17.10;58.80;;;;;;5047843;28;19928;-75
2021/03/26 09:27:55;;;;;;;;;;;17.10;58.80;;;;;;5045863;28;20400;-75
2021/03/26 09:30:26;;;;;;;;;;;17.10;58.80;;;;;;5034778;28;19928;-75
2021/03/26 09:33:13;;;;;;;;;;;17.10;58.70;;;;;;5033002;28;19924;-75
2021/03/26 09:35:43;;;;;;;;;;;17.20;58.70;;;;;;5034073;28;20400;-75
2021/03/26 09:38:11;;;;;;;;;;;17.10;58.70;;;;;;5045806;28;19921;-74
2021/03/26 09:41:00;;;;;;;;;;;17.10;58.70;;;;;;5047346;28;20012;-75
2021/03/26 09:43:30;;;;;;;;;;;17.10;58.60;;;;;;5055844;28;19913;-74
2021/03/26 09:46:04;;;;;;;;;;;17.10;58.60;;;;;;5049517;28;20358;-75
2021/03/26 09:48:38;;;;;;;;;;;17.20;58.70;;;;;;5061893;28;19920;-74
2021/03/26 09:51:23;;;;;;;;;;;17.10;58.60;;;;;;5063347;28;20282;-75
2021/03/26 09:53:54;;;;;;;;;;;17.10;58.60;;;;;;5046912;28;19974;-75
2021/03/26 09:56:45;;;;;;;;;;;17.20;58.60;;;;;;5052361;28;20000;-74
2021/03/26 09:59:20;;;;;;;;;;;17.20;58.50;;;;;;5017266;28;21971;-75
2021/03/26 10:01:48;;;;;;;;;;;17.20;58.50;;;;;;5056998;28;19920;-74
2021/03/26 10:04:17;;;;;;;;;;;17.20;58.50;;;;;;5052722;28;19912;-74
2021/03/26 10:06:43;;;;;;;;;;;17.20;58.50;;;;;;5036815;28;19913;-75
2021/03/26 10:09:26;;;;;;;;;;;17.20;58.50;;;;;;5052706;28;20309;-74
2021/03/26 10:11:52;;;;;;;;;;;17.20;58.40;;;;;;5064524;28;19912;-75
2021/03/26 10:14:23;;;;;;;;;;;17.20;58.40;;;;;;5058888;28;19931;-77
2021/03/26 10:16:55;;;;;;;;;;;17.20;58.40;;;;;;5045199;28;19917;-75
2021/03/26 10:19:31;;;;;;;;;;;17.20;58.40;;;;;;5053954;28;19967;-75
2021/03/26 10:22:04;;;;;;;;;;;17.20;58.40;;;;;;5027411;28;19916;-75
2021/03/26 10:24:29;;;;;;;;;;;17.20;58.30;;;;;;5029801;28;19956;-74
2021/03/26 10:27:00;;;;;;;;;;;17.30;58.30;;;;;;5051042;28;19998;-75
2021/03/26 10:29:41;;;;;;;;;;;17.30;58.30;;;;;;5059758;28;19922;-75
2021/03/26 10:32:08;;;;;;;;;;;17.20;58.30;;;;;;5060518;28;19921;-75
2021/03/26 10:34:37;;;;;;;;;;;17.30;58.30;;;;;;5046655;28;19920;-75
2021/03/26 10:37:23;;;;;;;;;;;17.30;58.30;;;;;;5035071;28;19919;-76
2021/03/26 10:40:05;;;;;;;;;;;17.30;58.20;;;;;;5046128;28;19935;-76
2021/03/26 10:42:46;;;;;;;;;;;17.30;58.20;;;;;;5033477;28;19983;-75
2021/03/26 10:45:31;;;;;;;;;;;17.30;58.20;;;;;;5052698;28;19952;-76
2021/03/26 10:48:00;;;;;;;;;;;17.30;58.20;;;;;;5050424;28;19992;-75
2021/03/26 10:50:34;;;;;;;;;;;17.30;58.20;;;;;;5028968;28;19925;-75
2021/03/26 10:53:14;;;;;;;;;;;17.30;58.20;;;;;;5038705;28;19979;-75
2021/03/26 10:55:43;;;;;;;;;;;17.30;58.10;;;;;;5042533;28;19921;-75
2021/03/26 10:58:35;;;;;;;;;;;17.30;58.20;;;;;;5029058;28;19925;-75
2021/03/26 11:01:00;;;;;;;;;;;17.30;58.10;;;;;;5021808;28;19955;-75
2021/03/26 11:03:29;;;;;;;;;;;17.30;58.10;;;;;;5048790;28;19952;-75
2021/03/26 11:06:08;;;;;;;;;;;17.30;58.10;;;;;;5046562;28;20369;-75
2021/03/26 11:08:34;;;;;;;;;;;17.30;58.10;;;;;;5048797;28;20036;-75
2021/03/26 11:11:02;;;;;;;;;;;17.30;58.00;;;;;;5045203;28;20426;-75
2021/03/26 11:13:27;;;;;;;;;;;17.30;58.00;;;;;;5047586;28;19913;-74
2021/03/26 11:16:12;;;;;;;;;;;17.30;58.00;;;;;;5058473;28;20391;-75
2021/03/26 11:18:43;;;;;;;;;;;17.30;58.00;;;;;;5054715;28;19917;-75
2021/03/26 11:21:15;;;;;;;;;;;17.30;58.00;;;;;;5041372;28;20267;-74
2021/03/26 11:23:41;;;;;;;;;;;17.30;58.00;;;;;;5031701;28;19920;-74
2021/03/26 11:26:10;;;;;;;;;;;17.30;57.90;;;;;;5046606;28;19963;-75
2021/03/26 11:28:40;;;;;;;;;;;17.30;57.90;;;;;;5049834;28;20365;-74
2021/03/26 11:31:12;;;;;;;;;;;17.30;57.90;;;;;;5044528;28;19949;-74
2021/03/26 11:33:59;;;;;;;;;;;17.40;57.90;;;;;;5060523;28;20317;-74
2021/03/26 11:36:37;;;;;;;;;;;17.30;57.90;;;;;;5030030;28;19913;-75
2021/03/26 11:39:22;;;;;;;;;;;17.40;57.90;;;;;;5044563;28;19920;-76
2021/03/26 11:41:57;;;;;;;;;;;17.30;57.80;;;;;;5014532;28;19920;-75
2021/03/26 11:44:28;;;;;;;;;;;17.40;57.80;;;;;;5043436;28;19956;-75
2021/03/26 11:47:01;;;;;;;;;;;17.40;57.80;;;;;;5045307;28;19936;-75
2021/03/26 11:49:28;;;;;;;;;;;17.40;57.80;;;;;;5050457;28;19973;-72
2021/03/26 11:52:05;;;;;;;;;;;17.40;57.80;;;;;;5062755;28;19924;-72
2021/03/26 11:54:35;;;;;;;;;;;17.40;57.80;;;;;;5045394;28;20278;-73
2021/03/26 11:57:08;;;;;;;;;;;17.40;57.80;;;;;;5041418;28;19920;-72
2021/03/26 11:59:39;;;;;;;;;;;17.40;57.80;;;;;;5042295;28;19963;-72
2021/03/26 12:02:07;;;;;;;;;;;17.40;57.70;;;;;;5041142;28;20371;-72
2021/03/26 12:04:59;;;;;;;;;;;17.40;57.70;;;;;;5042029;28;19913;-74
2021/03/26 12:07:33;;;;;;;;;;;17.40;57.70;;;;;;5029442;28;19913;-73
2021/03/26 12:10:07;;;;;;;;;;;17.40;57.70;;;;;;5028637;28;19917;-73
2021/03/26 12:12:43;;;;;;;;;;;17.40;57.70;;;;;;5044349;28;19923;-76
2021/03/26 12:15:16;;;;;;;;;;;17.40;57.60;;;;;;5046097;28;19917;-73
2021/03/26 12:17:47;;;;;;;;;;;17.50;57.60;;;;;;5028069;28;20264;-74
2021/03/26 12:20:27;;;;;;;;;;;17.50;57.60;;;;;;5045490;28;19920;-74
2021/03/26 12:23:03;;;;;;;;;;;17.50;57.60;;;;;;5059363;28;19921;-74
2021/03/26 12:25:31;;;;;;;;;;;17.50;57.50;;;;;;5061141;28;19913;-73
2021/03/26 12:27:57;;;;;;;;;;;17.50;57.50;;;;;;5042816;28;19916;-73
2021/03/26 12:30:25;;;;;;;;;;;17.40;57.60;;;;;;5043514;28;19963;-73
2021/03/26 12:32:58;;;;;;;;;;;17.50;57.60;;;;;;5045646;28;19940;-74
2021/03/26 12:35:27;;;;;;;;;;;17.50;57.60;;;;;;5042069;28;20382;-73
2021/03/26 12:38:16;;;;;;;;;;;17.50;57.60;;;;;;5054745;28;19963;-74
2021/03/26 12:40:41;;;;;;;;;;;17.50;57.60;;;;;;5041003;28;20678;-73
2021/03/26 12:43:27;;;;;;;;;;;17.50;57.60;;;;;;5046367;28;19928;-73
2021/03/26 12:45:55;;;;;;;;;;;17.50;57.50;;;;;;5024530;28;19919;-73
2021/03/26 12:48:24;;;;;;;;;;;17.50;57.50;;;;;;5032340;28;19920;-73
2021/03/26 12:50:54;;;;;;;;;;;17.60;57.40;;;;;;5047589;28;19921;-73
2021/03/26 12:53:19;;;;;;;;;;;17.60;57.40;;;;;;5032749;28;20385;-75
2021/03/26 12:56:04;;;;;;;;;;;17.50;57.40;;;;;;5042017;28;19948;-74
2021/03/26 12:58:34;;;;;;;;;;;17.50;57.40;;;;;;5045247;28;19917;-75
2021/03/26 13:01:06;;;;;;;;;;;17.60;57.40;;;;;;5041610;28;20285;-75
2021/03/26 13:03:34;;;;;;;;;;;17.50;57.40;;;;;;5054000;28;19917;-75
2021/03/26 13:06:09;;;;;;;;;;;17.60;57.40;;;;;;5044949;28;19913;-74
2021/03/26 13:08:36;;;;;;;;;;;17.60;57.50;;;;;;5039154;28;19917;-76
2021/03/26 13:11:08;;;;;;;;;;;17.50;57.50;;;;;;5044535;28;19921;-77
2021/03/26 13:13:44;;;;;;;;;;;17.50;57.40;;;;;;5043395;28;19928;-76
2021/03/26 13:16:14;;;;;;;;;;;17.60;57.40;;;;;;5053517;28;20335;-76
2021/03/26 13:18:51;;;;;;;;;;;17.50;57.40;;;;;;5043647;28;20358;-77
2021/03/26 13:21:29;;;;;;;;;;;17.50;57.40;;;;;;5039519;28;20019;-76
2021/03/26 13:24:03;;;;;;;;;;;17.60;57.30;;;;;;5036554;28;19917;-75
2021/03/26 13:26:30;;;;;;;;;;;17.60;57.30;;;;;;5047941;28;19921;-76
2021/03/26 13:28:57;;;;;;;;;;;17.60;57.20;;;;;;5042870;28;19958;-76
2021/03/26 13:31:33;;;;;;;;;;;17.60;57.10;;;;;;5047389;28;20439;-76
2021/03/26 13:34:04;;;;;;;;;;;17.70;57.10;;;;;;5026829;28;19916;-73
2021/03/26 13:36:36;;;;;;;;;;;17.70;57.10;;;;;;5030107;28;19974;-75
2021/03/26 13:39:04;;;;;;;;;;;17.70;57.10;;;;;;5029440;28;19917;-75
2021/03/26 13:41:52;;;;;;;;;;;17.60;57.20;;;;;;5044658;28;20179;-75
2021/03/26 13:44:17;;;;;;;;;;;17.60;57.20;;;;;;5044830;28;19916;-72
2021/03/26 13:46:44;;;;;;;;;;;17.60;57.30;;;;;;5058840;28;19958;-73
2021/03/26 13:49:18;;;;;;;;;;;17.60;57.30;;;;;;5027388;28;20328;-75
2021/03/26 13:51:46;;;;;;;;;;;17.60;57.30;;;;;;5049293;28;19924;-73
2021/03/26 13:54:11;;;;;;;;;;;17.60;57.30;;;;;;5046867;28;19921;-75
2021/03/26 13:56:46;;;;;;;;;;;17.60;57.30;;;;;;5044792;28;20325;-72
2021/03/26 13:59:14;;;;;;;;;;;17.60;57.30;;;;;;5049639;28;20065;-75
2021/03/26 14:01:51;;;;;;;;;;;17.60;57.30;;;;;;5033014;28;19913;-78
2021/03/26 14:04:39;;;;;;;;;;;17.60;57.30;;;;;;5049433;28;19917;-76
2021/03/26 14:07:13;;;;;;;;;;;17.60;57.40;;;;;;5027699;28;20599;-76
2021/03/26 14:09:52;;;;;;;;;;;17.60;57.40;;;;;;5045301;28;20497;-76
2021/03/26 14:12:34;;;;;;;;;;;17.60;57.30;;;;;;5066002;28;19917;-76
2021/03/26 14:15:01;;;;;;;;;;;17.60;57.30;;;;;;5039122;28;19936;-76
2021/03/26 14:17:30;;;;;;;;;;;17.60;57.30;;;;;;5051487;28;20286;-76
2021/03/26 14:20:04;;;;;;;;;;;17.60;57.30;;;;;;5045822;28;19913;-76
2021/03/26 14:22:36;;;;;;;;;;;17.60;57.30;;;;;;5061828;28;19924;-76
2021/03/26 14:25:25;;;;;;;;;;;17.60;57.30;;;;;;5036183;28;19920;-77
2021/03/26 14:27:51;;;;;;;;;;;17.60;57.30;;;;;;5046525;28;20488;-76
2021/03/26 14:30:17;;;;;;;;;;;17.60;57.30;;;;;;5064013;28;19928;-77
2021/03/26 14:32:45;;;;;;;;;;;17.70;57.30;;;;;;5067672;28;19917;-76
2021/03/26 14:35:17;;;;;;;;;;;17.60;57.30;;;;;;5063488;28;19920;-76
2021/03/26 14:37:44;;;;;;;;;;;17.70;57.30;;;;;;5049167;28;19917;-76
2021/03/26 14:40:18;;;;;;;;;;;17.70;57.30;;;;;;5039522;28;19916;-77
2021/03/26 14:42:49;;;;;;;;;;;17.60;57.30;;;;;;5040474;28;22846;-77
2021/03/26 14:45:24;;;;;;;;;;;17.70;57.30;;;;;;5041444;28;19928;-76
2021/03/26 14:47:50;;;;;;;;;;;17.70;57.30;;;;;;5044735;28;19957;-77
2021/03/26 14:50:15;;;;;;;;;;;17.70;57.30;;;;;;5055252;28;19916;-75